sensor_id;sensor_type;location;lat;lon;timestamp;pressure;altitude;pressure_sealevel;temperature;humidity
77192;BME280;66172;48.526;8.078;2023-07-29T00:00:57;99139.59;;;17.94;96.12
77192;BME280;66172;48.526;8.078;2023-07-29T00:03:23;99125.84;;;17.59;98.71
77192;BME280;66172;48.526;8.078;2023-07-29T00:05:49;99127.41;;;17.63;98.36
77192;BME280;66172;48.526;8.078;2023-07-29T00:08:15;99121.53;;;17.65;98.50
77192;BME280;66172;48.526;8.078;2023-07-29T00:10:40;99122.31;;;17.65;98.87
77192;BME280;66172;48.526;8.078;2023-07-29T00:13:06;99121.09;;;17.80;96.96
77192;BME280;66172;48.526;8.078;2023-07-29T00:15:32;99118.34;;;17.80;96.64
77192;BME280;66172;48.526;8.078;2023-07-29T00:17:58;99121.53;;;17.72;97.17
77192;BME280;66172;48.526;8.078;2023-07-29T00:20:24;99126.22;;;17.71;97.51
77192;BME280;66172;48.526;8.078;2023-07-29T00:22:50;99117.97;;;17.78;96.96
77192;BME280;66172;48.526;8.078;2023-07-29T00:25:18;99125.06;;;17.90;95.97
77192;BME280;66172;48.526;8.078;2023-07-29T00:27:44;99124.63;;;17.91;96.36
77192;BME280;66172;48.526;8.078;2023-07-29T00:30:10;99131.34;;;17.90;96.25
77192;BME280;66172;48.526;8.078;2023-07-29T00:32:36;99122.69;;;17.78;96.98
77192;BME280;66172;48.526;8.078;2023-07-29T00:35:03;99125.03;;;17.97;96.02
77192;BME280;66172;48.526;8.078;2023-07-29T00:37:29;99126.59;;;17.87;96.51
77192;BME280;66172;48.526;8.078;2023-07-29T00:39:56;99125.06;;;17.79;97.32
77192;BME280;66172;48.526;8.078;2023-07-29T00:42:22;99126.22;;;17.85;97.03
77192;BME280;66172;48.526;8.078;2023-07-29T00:44:48;99114.84;;;17.80;97.45
77192;BME280;66172;48.526;8.078;2023-07-29T00:47:15;99106.59;;;17.90;96.35
77192;BME280;66172;48.526;8.078;2023-07-29T00:49:43;99112.44;;;18.00;95.81
77192;BME280;66172;48.526;8.078;2023-07-29T00:52:09;99099.50;;;17.86;96.30
77192;BME280;66172;48.526;8.078;2023-07-29T00:54:39;99100.31;;;17.83;96.85
77192;BME280;66172;48.526;8.078;2023-07-29T00:57:08;99095.59;;;17.76;97.56
77192;BME280;66172;48.526;8.078;2023-07-29T00:59:35;99100.31;;;17.79;97.06
77192;BME280;66172;48.526;8.078;2023-07-29T01:02:02;99099.09;;;17.80;97.40
77192;BME280;66172;48.526;8.078;2023-07-29T01:04:28;99100.66;;;17.53;99.48
77192;BME280;66172;48.526;8.078;2023-07-29T01:07:06;99098.31;;;17.37;100.00
77192;BME280;66172;48.526;8.078;2023-07-29T01:12:54;99087.72;;;17.78;98.70
77192;BME280;66172;48.526;8.078;2023-07-29T01:17:58;99075.16;;;17.56;100.00
77192;BME280;66172;48.526;8.078;2023-07-29T01:20:25;99081.03;;;17.40;100.00
77192;BME280;66172;48.526;8.078;2023-07-29T01:22:51;99080.25;;;17.54;100.00
77192;BME280;66172;48.526;8.078;2023-07-29T01:25:17;99074.34;;;17.70;99.00
77192;BME280;66172;48.526;8.078;2023-07-29T01:27:46;99070.03;;;17.83;97.91
77192;BME280;66172;48.526;8.078;2023-07-29T01:30:12;99068.47;;;17.78;98.26
77192;BME280;66172;48.526;8.078;2023-07-29T01:35:21;99062.16;;;17.95;97.00
77192;BME280;66172;48.526;8.078;2023-07-29T01:38:05;99059.03;;;17.90;96.93
77192;BME280;66172;48.526;8.078;2023-07-29T01:40:33;99060.19;;;17.92;97.71
77192;BME280;66172;48.526;8.078;2023-07-29T01:42:59;99061.75;;;18.01;96.32
77192;BME280;66172;48.526;8.078;2023-07-29T01:45:25;99070.03;;;17.90;97.37
77192;BME280;66172;48.526;8.078;2023-07-29T01:47:51;99062.94;;;17.96;96.44
77192;BME280;66172;48.526;8.078;2023-07-29T01:50:17;99062.53;;;17.98;96.15
77192;BME280;66172;48.526;8.078;2023-07-29T01:52:43;99060.97;;;18.00;95.80
77192;BME280;66172;48.526;8.078;2023-07-29T01:55:09;99070.00;;;18.04;95.93
77192;BME280;66172;48.526;8.078;2023-07-29T01:57:35;99075.88;;;17.99;95.60
77192;BME280;66172;48.526;8.078;2023-07-29T02:00:01;99072.75;;;18.01;95.80
77192;BME280;66172;48.526;8.078;2023-07-29T02:02:27;99073.94;;;18.00;96.03
77192;BME280;66172;48.526;8.078;2023-07-29T02:04:53;99073.16;;;17.88;96.93
77192;BME280;66172;48.526;8.078;2023-07-29T02:07:21;99059.81;;;17.87;97.88
77192;BME280;66172;48.526;8.078;2023-07-29T02:09:47;99060.19;;;17.92;97.32
77192;BME280;66172;48.526;8.078;2023-07-29T02:12:13;99058.25;;;17.82;97.91
77192;BME280;66172;48.526;8.078;2023-07-29T02:14:39;99056.66;;;17.88;97.64
77192;BME280;66172;48.526;8.078;2023-07-29T02:17:04;99059.78;;;18.01;96.61
77192;BME280;66172;48.526;8.078;2023-07-29T02:19:30;99058.59;;;18.02;96.61
77192;BME280;66172;48.526;8.078;2023-07-29T02:21:56;99068.09;;;17.69;99.88
77192;BME280;66172;48.526;8.078;2023-07-29T02:24:22;99059.41;;;17.81;99.12
77192;BME280;66172;48.526;8.078;2023-07-29T02:26:48;99052.31;;;17.94;98.02
77192;BME280;66172;48.526;8.078;2023-07-29T02:29:14;99053.50;;;18.01;97.62
77192;BME280;66172;48.526;8.078;2023-07-29T02:31:40;99047.56;;;18.06;97.26
77192;BME280;66172;48.526;8.078;2023-07-29T02:34:06;99039.38;;;17.77;99.54
77192;BME280;66172;48.526;8.078;2023-07-29T02:36:31;99045.66;;;17.81;99.49
77192;BME280;66172;48.526;8.078;2023-07-29T02:38:57;99036.22;;;17.89;98.99
77192;BME280;66172;48.526;8.078;2023-07-29T02:41:23;99042.88;;;17.95;98.83
77192;BME280;66172;48.526;8.078;2023-07-29T02:43:50;99034.19;;;18.11;97.33
77192;BME280;66172;48.526;8.078;2023-07-29T02:46:16;99045.63;;;17.95;98.11
77192;BME280;66172;48.526;8.078;2023-07-29T02:48:43;99039.78;;;17.90;98.69
77192;BME280;66172;48.526;8.078;2023-07-29T02:51:09;99034.97;;;18.15;96.94
77192;BME280;66172;48.526;8.078;2023-07-29T02:53:35;99025.63;;;17.81;100.00
77192;BME280;66172;48.526;8.078;2023-07-29T02:56:04;99028.00;;;17.79;100.00
77192;BME280;66172;48.526;8.078;2023-07-29T02:58:30;99028.78;;;17.86;100.00
77192;BME280;66172;48.526;8.078;2023-07-29T03:01:03;99026.84;;;17.66;100.00
77192;BME280;66172;48.526;8.078;2023-07-29T03:03:30;99016.59;;;17.80;100.00
77192;BME280;66172;48.526;8.078;2023-07-29T03:06:04;99016.19;;;17.89;100.00
77192;BME280;66172;48.526;8.078;2023-07-29T03:08:30;99010.66;;;17.92;100.00
77192;BME280;66172;48.526;8.078;2023-07-29T03:10:57;99013.78;;;17.98;100.00
77192;BME280;66172;48.526;8.078;2023-07-29T03:13:23;99026.00;;;17.90;100.00
77192;BME280;66172;48.526;8.078;2023-07-29T03:15:49;99022.50;;;17.82;100.00
77192;BME280;66172;48.526;8.078;2023-07-29T03:18:15;99030.75;;;17.82;100.00
77192;BME280;66172;48.526;8.078;2023-07-29T03:20:41;99068.09;;;17.76;100.00
77192;BME280;66172;48.526;8.078;2023-07-29T03:23:07;99084.19;;;17.71;100.00
77192;BME280;66172;48.526;8.078;2023-07-29T03:25:33;99077.53;;;17.65;100.00
77192;BME280;66172;48.526;8.078;2023-07-29T03:27:59;99083.00;;;17.75;100.00
77192;BME280;66172;48.526;8.078;2023-07-29T03:30:25;99087.34;;;17.76;100.00
77192;BME280;66172;48.526;8.078;2023-07-29T03:32:51;99083.81;;;17.76;100.00
77192;BME280;66172;48.526;8.078;2023-07-29T03:35:16;99046.47;;;17.78;100.00
77192;BME280;66172;48.526;8.078;2023-07-29T03:37:43;99072.00;;;17.86;100.00
77192;BME280;66172;48.526;8.078;2023-07-29T03:40:09;99066.09;;;17.87;100.00
77192;BME280;66172;48.526;8.078;2023-07-29T03:42:35;99064.91;;;17.81;100.00
77192;BME280;66172;48.526;8.078;2023-07-29T03:45:02;99057.84;;;17.80;100.00
77192;BME280;66172;48.526;8.078;2023-07-29T03:47:27;99055.50;;;17.82;100.00
77192;BME280;66172;48.526;8.078;2023-07-29T03:49:53;99055.88;;;17.84;100.00
77192;BME280;66172;48.526;8.078;2023-07-29T03:52:19;99060.19;;;17.85;100.00
77192;BME280;66172;48.526;8.078;2023-07-29T03:54:45;99066.50;;;17.82;100.00
77192;BME280;66172;48.526;8.078;2023-07-29T03:57:11;99050.38;;;17.88;100.00
77192;BME280;66172;48.526;8.078;2023-07-29T03:59:37;99054.25;;;18.08;100.00
77192;BME280;66172;48.526;8.078;2023-07-29T04:02:03;99063.28;;;18.05;100.00
77192;BME280;66172;48.526;8.078;2023-07-29T04:04:29;99062.13;;;17.99;100.00
77192;BME280;66172;48.526;8.078;2023-07-29T04:06:55;99041.72;;;17.93;100.00
77192;BME280;66172;48.526;8.078;2023-07-29T04:09:21;99038.47;;;18.19;100.00
77192;BME280;66172;48.526;8.078;2023-07-29T04:11:47;99034.13;;;18.29;100.00
77192;BME280;66172;48.526;8.078;2023-07-29T04:14:13;99035.69;;;18.26;100.00
77192;BME280;66172;48.526;8.078;2023-07-29T04:16:38;99031.75;;;18.27;100.00
77192;BME280;66172;48.526;8.078;2023-07-29T04:19:04;99034.50;;;18.34;100.00
77192;BME280;66172;48.526;8.078;2023-07-29T04:21:30;99030.59;;;18.25;100.00
77192;BME280;66172;48.526;8.078;2023-07-29T04:23:56;99040.44;;;18.29;100.00
77192;BME280;66172;48.526;8.078;2023-07-29T04:26:22;99036.41;;;18.44;100.00
77192;BME280;66172;48.526;8.078;2023-07-29T04:28:48;99037.22;;;18.41;100.00
77192;BME280;66172;48.526;8.078;2023-07-29T04:31:14;99039.59;;;18.36;100.00
77192;BME280;66172;48.526;8.078;2023-07-29T04:33:39;99043.91;;;18.37;100.00
77192;BME280;66172;48.526;8.078;2023-07-29T04:36:05;99044.75;;;18.23;100.00
77192;BME280;66172;48.526;8.078;2023-07-29T04:38:32;99043.94;;;18.26;100.00
77192;BME280;66172;48.526;8.078;2023-07-29T04:40:59;99055.00;;;18.19;100.00
77192;BME280;66172;48.526;8.078;2023-07-29T04:43:30;99060.50;;;18.12;100.00
77192;BME280;66172;48.526;8.078;2023-07-29T04:45:56;99050.34;;;18.02;100.00
77192;BME280;66172;48.526;8.078;2023-07-29T04:48:22;99055.84;;;17.95;100.00
77192;BME280;66172;48.526;8.078;2023-07-29T04:50:48;99047.19;;;18.00;100.00
77192;BME280;66172;48.526;8.078;2023-07-29T04:53:14;99053.47;;;18.11;100.00
77192;BME280;66172;48.526;8.078;2023-07-29T04:55:43;99057.34;;;18.28;100.00
77192;BME280;66172;48.526;8.078;2023-07-29T04:58:09;99062.03;;;18.34;100.00
77192;BME280;66172;48.526;8.078;2023-07-29T05:00:35;99058.13;;;18.28;100.00
77192;BME280;66172;48.526;8.078;2023-07-29T05:03:01;99051.81;;;18.31;100.00
77192;BME280;66172;48.526;8.078;2023-07-29T05:05:27;99055.38;;;18.28;100.00
77192;BME280;66172;48.526;8.078;2023-07-29T05:07:53;99058.91;;;18.29;100.00
77192;BME280;66172;48.526;8.078;2023-07-29T05:10:19;99072.69;;;18.25;100.00
77192;BME280;66172;48.526;8.078;2023-07-29T05:12:46;99061.25;;;18.27;100.00
77192;BME280;66172;48.526;8.078;2023-07-29T05:15:12;99064.41;;;18.32;100.00
77192;BME280;66172;48.526;8.078;2023-07-29T05:17:38;99053.38;;;18.32;100.00
77192;BME280;66172;48.526;8.078;2023-07-29T05:20:04;99062.78;;;18.38;100.00
77192;BME280;66172;48.526;8.078;2023-07-29T05:22:30;99075.69;;;18.63;100.00
77192;BME280;66172;48.526;8.078;2023-07-29T05:24:56;99072.59;;;18.57;100.00
77192;BME280;66172;48.526;8.078;2023-07-29T05:27:22;99068.19;;;18.67;100.00
77192;BME280;66172;48.526;8.078;2023-07-29T05:29:47;99062.69;;;18.67;100.00
77192;BME280;66172;48.526;8.078;2023-07-29T05:32:13;99058.34;;;18.69;100.00
77192;BME280;66172;48.526;8.078;2023-07-29T05:34:39;99059.13;;;18.73;100.00
77192;BME280;66172;48.526;8.078;2023-07-29T05:37:05;99071.72;;;18.74;100.00
77192;BME280;66172;48.526;8.078;2023-07-29T05:39:31;99067.41;;;18.70;100.00
77192;BME280;66172;48.526;8.078;2023-07-29T05:41:58;99065.03;;;18.68;100.00
77192;BME280;66172;48.526;8.078;2023-07-29T05:44:24;99076.41;;;18.77;100.00
77192;BME280;66172;48.526;8.078;2023-07-29T05:46:50;99082.69;;;18.81;100.00
77192;BME280;66172;48.526;8.078;2023-07-29T05:49:16;99087.47;;;18.70;100.00
77192;BME280;66172;48.526;8.078;2023-07-29T05:51:42;99095.44;;;18.54;100.00
77192;BME280;66172;48.526;8.078;2023-07-29T05:54:08;99099.72;;;18.48;100.00
77192;BME280;66172;48.526;8.078;2023-07-29T05:56:34;99101.72;;;18.40;100.00
77192;BME280;66172;48.526;8.078;2023-07-29T05:59:00;99115.50;;;18.37;100.00
77192;BME280;66172;48.526;8.078;2023-07-29T06:01:26;99132.00;;;18.44;100.00
77192;BME280;66172;48.526;8.078;2023-07-29T06:03:52;99123.34;;;18.56;100.00
77192;BME280;66172;48.526;8.078;2023-07-29T06:06:17;99130.34;;;18.75;100.00
77192;BME280;66172;48.526;8.078;2023-07-29T06:08:43;99141.66;;;18.94;98.68
77192;BME280;66172;48.526;8.078;2023-07-29T06:11:10;99133.75;;;18.96;100.00
77192;BME280;66172;48.526;8.078;2023-07-29T06:13:35;99139.25;;;19.00;100.00
77192;BME280;66172;48.526;8.078;2023-07-29T06:16:01;99123.94;;;18.99;99.17
77192;BME280;66172;48.526;8.078;2023-07-29T06:18:27;99114.06;;;18.98;100.00
77192;BME280;66172;48.526;8.078;2023-07-29T06:20:53;99116.47;;;18.96;100.00
77192;BME280;66172;48.526;8.078;2023-07-29T06:23:19;99121.19;;;18.95;100.00
77192;BME280;66172;48.526;8.078;2023-07-29T06:25:45;99125.91;;;18.95;100.00
77192;BME280;66172;48.526;8.078;2023-07-29T06:28:11;99132.97;;;19.00;100.00
77192;BME280;66172;48.526;8.078;2023-07-29T06:30:37;99141.28;;;18.96;100.00
77192;BME280;66172;48.526;8.078;2023-07-29T06:33:03;99141.63;;;18.98;100.00
77192;BME280;66172;48.526;8.078;2023-07-29T06:35:29;99144.41;;;18.98;100.00
77192;BME280;66172;48.526;8.078;2023-07-29T06:37:55;99140.09;;;18.90;100.00
77192;BME280;66172;48.526;8.078;2023-07-29T06:40:21;99133.44;;;18.87;100.00
77192;BME280;66172;48.526;8.078;2023-07-29T06:42:46;99136.94;;;18.95;100.00
77192;BME280;66172;48.526;8.078;2023-07-29T06:45:12;99141.19;;;19.10;100.00
77192;BME280;66172;48.526;8.078;2023-07-29T06:47:38;99143.13;;;19.13;100.00
77192;BME280;66172;48.526;8.078;2023-07-29T06:50:04;99138.75;;;19.19;100.00
77192;BME280;66172;48.526;8.078;2023-07-29T06:52:30;99128.03;;;19.32;100.00
77192;BME280;66172;48.526;8.078;2023-07-29T06:54:56;99126.06;;;19.32;99.90
77192;BME280;66172;48.526;8.078;2023-07-29T06:57:22;99135.41;;;19.56;98.41
77192;BME280;66172;48.526;8.078;2023-07-29T06:59:48;99131.84;;;19.56;98.34
77192;BME280;66172;48.526;8.078;2023-07-29T07:02:14;99124.41;;;19.49;98.32
77192;BME280;66172;48.526;8.078;2023-07-29T07:04:40;99130.50;;;19.74;99.73
77192;BME280;66172;48.526;8.078;2023-07-29T07:07:06;99116.72;;;20.83;92.01
77192;BME280;66172;48.526;8.078;2023-07-29T07:09:32;99115.81;;;23.67;78.06
77192;BME280;66172;48.526;8.078;2023-07-29T07:11:58;99120.63;;;24.69;69.61
77192;BME280;66172;48.526;8.078;2023-07-29T07:14:24;99123.47;;;26.29;63.90
77192;BME280;66172;48.526;8.078;2023-07-29T07:16:49;99122.56;;;26.32;61.17
77192;BME280;66172;48.526;8.078;2023-07-29T07:19:15;99122.41;;;27.63;58.96
77192;BME280;66172;48.526;8.078;2023-07-29T07:21:41;99121.16;;;27.64;56.03
77192;BME280;66172;48.526;8.078;2023-07-29T07:24:07;99117.13;;;26.72;60.02
77192;BME280;66172;48.526;8.078;2023-07-29T07:26:33;99117.84;;;26.64;60.04
77192;BME280;66172;48.526;8.078;2023-07-29T07:28:59;99123.97;;;25.68;62.44
77192;BME280;66172;48.526;8.078;2023-07-29T07:31:25;99119.97;;;23.43;68.35
77192;BME280;66172;48.526;8.078;2023-07-29T07:33:51;99127.44;;;23.26;71.24
77192;BME280;66172;48.526;8.078;2023-07-29T07:36:17;99124.81;;;23.03;73.47
77192;BME280;66172;48.526;8.078;2023-07-29T07:38:43;99120.59;;;22.78;75.13
77192;BME280;66172;48.526;8.078;2023-07-29T07:41:09;99120.41;;;22.26;77.77
77192;BME280;66172;48.526;8.078;2023-07-29T07:43:35;99130.28;;;22.27;79.11
77192;BME280;66172;48.526;8.078;2023-07-29T07:46:01;99130.66;;;22.29;78.64
77192;BME280;66172;48.526;8.078;2023-07-29T07:48:27;99133.41;;;22.29;80.22
77192;BME280;66172;48.526;8.078;2023-07-29T07:50:53;99130.91;;;22.15;81.45
77192;BME280;66172;48.526;8.078;2023-07-29T07:53:19;99136.69;;;22.01;80.54
77192;BME280;66172;48.526;8.078;2023-07-29T07:55:48;99138.97;;;22.06;81.29
77192;BME280;66172;48.526;8.078;2023-07-29T07:58:13;99132.56;;;21.86;82.78
77192;BME280;66172;48.526;8.078;2023-07-29T08:00:39;99135.19;;;21.97;83.27
77192;BME280;66172;48.526;8.078;2023-07-29T08:03:05;99128.13;;;22.15;82.78
77192;BME280;66172;48.526;8.078;2023-07-29T08:05:31;99130.56;;;22.33;82.60
77192;BME280;66172;48.526;8.078;2023-07-29T08:07:57;99124.09;;;22.59;81.22
77192;BME280;66172;48.526;8.078;2023-07-29T08:10:23;99123.44;;;23.11;79.61
77192;BME280;66172;48.526;8.078;2023-07-29T08:12:49;99125.84;;;23.45;76.20
77192;BME280;66172;48.526;8.078;2023-07-29T08:15:15;99123.69;;;23.52;71.96
77192;BME280;66172;48.526;8.078;2023-07-29T08:17:41;99138.00;;;23.83;71.52
77192;BME280;66172;48.526;8.078;2023-07-29T08:20:07;99135.38;;;24.08;69.48
77192;BME280;66172;48.526;8.078;2023-07-29T08:22:33;99136.44;;;23.98;69.20
77192;BME280;66172;48.526;8.078;2023-07-29T08:24:59;99148.31;;;23.82;68.90
77192;BME280;66172;48.526;8.078;2023-07-29T08:27:25;99148.41;;;23.95;68.65
77192;BME280;66172;48.526;8.078;2023-07-29T08:29:51;99149.69;;;24.07;67.89
77192;BME280;66172;48.526;8.078;2023-07-29T08:32:17;99149.47;;;23.85;69.58
77192;BME280;66172;48.526;8.078;2023-07-29T08:34:42;99153.13;;;23.50;69.10
77192;BME280;66172;48.526;8.078;2023-07-29T08:37:08;99159.16;;;23.45;70.14
77192;BME280;66172;48.526;8.078;2023-07-29T08:39:34;99158.56;;;23.17;71.87
77192;BME280;66172;48.526;8.078;2023-07-29T08:42:04;99155.00;;;23.69;70.05
77192;BME280;66172;48.526;8.078;2023-07-29T08:44:35;99161.00;;;24.16;67.56
77192;BME280;66172;48.526;8.078;2023-07-29T08:47:03;99147.81;;;24.49;66.75
77192;BME280;66172;48.526;8.078;2023-07-29T08:49:29;99138.25;;;25.58;65.75
77192;BME280;66172;48.526;8.078;2023-07-29T08:51:57;99156.09;;;25.06;63.86
77192;BME280;66172;48.526;8.078;2023-07-29T08:54:23;99164.09;;;24.92;65.22
77192;BME280;66172;48.526;8.078;2023-07-29T08:56:50;99144.88;;;25.48;65.02
77192;BME280;66172;48.526;8.078;2023-07-29T08:59:16;99144.91;;;25.60;63.64
77192;BME280;66172;48.526;8.078;2023-07-29T09:01:43;99144.88;;;25.73;63.76
77192;BME280;66172;48.526;8.078;2023-07-29T09:04:09;99143.16;;;25.54;63.92
77192;BME280;66172;48.526;8.078;2023-07-29T09:06:35;99145.88;;;25.41;65.37
77192;BME280;66172;48.526;8.078;2023-07-29T09:09:01;99139.91;;;24.76;66.92
77192;BME280;66172;48.526;8.078;2023-07-29T09:11:28;99142.47;;;24.42;68.34
77192;BME280;66172;48.526;8.078;2023-07-29T09:13:54;99133.84;;;24.65;66.97
77192;BME280;66172;48.526;8.078;2023-07-29T09:16:20;99130.25;;;24.52;68.21
77192;BME280;66172;48.526;8.078;2023-07-29T09:18:50;99127.00;;;24.82;64.51
77192;BME280;66172;48.526;8.078;2023-07-29T09:21:17;99142.69;;;24.76;64.91
77192;BME280;66172;48.526;8.078;2023-07-29T09:23:48;99128.81;;;24.60;65.87
77192;BME280;66172;48.526;8.078;2023-07-29T09:26:25;99142.28;;;24.90;65.87
77192;BME280;66172;48.526;8.078;2023-07-29T09:28:55;99134.06;;;24.58;64.44
77192;BME280;66172;48.526;8.078;2023-07-29T09:31:23;99128.63;;;25.33;64.13
77192;BME280;66172;48.526;8.078;2023-07-29T09:33:50;99118.50;;;26.68;59.96
77192;BME280;66172;48.526;8.078;2023-07-29T09:36:21;99131.84;;;28.23;57.76
77192;BME280;66172;48.526;8.078;2023-07-29T09:38:46;99128.41;;;28.83;55.04
77192;BME280;66172;48.526;8.078;2023-07-29T09:41:13;99123.78;;;29.22;54.43
77192;BME280;66172;48.526;8.078;2023-07-29T09:43:41;99108.09;;;29.81;53.45
77192;BME280;66172;48.526;8.078;2023-07-29T09:46:06;99120.09;;;30.82;50.48
77192;BME280;66172;48.526;8.078;2023-07-29T09:48:37;99124.97;;;32.15;47.54
77192;BME280;66172;48.526;8.078;2023-07-29T09:51:12;99125.81;;;32.93;45.76
77192;BME280;66172;48.526;8.078;2023-07-29T09:53:43;99124.94;;;32.82;46.60
77192;BME280;66172;48.526;8.078;2023-07-29T09:56:10;99128.03;;;31.77;47.04
77192;BME280;66172;48.526;8.078;2023-07-29T09:58:36;99122.00;;;30.91;49.81
77192;BME280;66172;48.526;8.078;2023-07-29T10:01:05;99113.41;;;30.03;50.45
77192;BME280;66172;48.526;8.078;2023-07-29T10:03:33;99111.66;;;29.58;53.89
77192;BME280;66172;48.526;8.078;2023-07-29T10:06:01;99112.25;;;29.29;54.81
77192;BME280;66172;48.526;8.078;2023-07-29T10:08:30;99118.94;;;28.71;55.84
77192;BME280;66172;48.526;8.078;2023-07-29T10:11:01;99116.53;;;28.97;53.83
77192;BME280;66172;48.526;8.078;2023-07-29T10:13:27;99126.31;;;29.11;51.51
77192;BME280;66172;48.526;8.078;2023-07-29T10:15:54;99136.66;;;28.14;50.92
77192;BME280;66172;48.526;8.078;2023-07-29T10:18:23;99134.31;;;28.40;50.70
77192;BME280;66172;48.526;8.078;2023-07-29T10:20:52;99136.03;;;28.55;51.40
77192;BME280;66172;48.526;8.078;2023-07-29T10:23:18;99129.78;;;29.48;47.28
77192;BME280;66172;48.526;8.078;2023-07-29T10:25:55;99125.75;;;30.20;44.49
77192;BME280;66172;48.526;8.078;2023-07-29T10:28:25;99129.03;;;30.42;45.47
77192;BME280;66172;48.526;8.078;2023-07-29T10:30:52;99125.00;;;29.96;46.95
77192;BME280;66172;48.526;8.078;2023-07-29T10:33:18;99131.97;;;28.84;48.75
77192;BME280;66172;48.526;8.078;2023-07-29T10:35:44;99128.06;;;27.99;53.19
77192;BME280;66172;48.526;8.078;2023-07-29T10:38:10;99128.28;;;27.56;55.79
77192;BME280;66172;48.526;8.078;2023-07-29T10:40:51;99131.09;;;27.25;57.72
77192;BME280;66172;48.526;8.078;2023-07-29T10:43:40;99123.78;;;26.88;57.85
77192;BME280;66172;48.526;8.078;2023-07-29T10:46:17;99136.94;;;27.18;58.38
77192;BME280;66172;48.526;8.078;2023-07-29T10:48:51;99133.63;;;27.72;56.67
77192;BME280;66172;48.526;8.078;2023-07-29T10:51:33;99126.06;;;28.00;55.47
77192;BME280;66172;48.526;8.078;2023-07-29T10:56:29;99130.47;;;28.46;52.46
77192;BME280;66172;48.526;8.078;2023-07-29T10:58:56;99128.59;;;28.70;52.90
77192;BME280;66172;48.526;8.078;2023-07-29T11:01:30;99130.72;;;28.94;52.21
77192;BME280;66172;48.526;8.078;2023-07-29T11:15:22;99130.25;;;31.73;46.03
77192;BME280;66172;48.526;8.078;2023-07-29T11:17:59;99127.25;;;32.37;44.60
77192;BME280;66172;48.526;8.078;2023-07-29T11:20:27;99114.19;;;31.94;43.80
77192;BME280;66172;48.526;8.078;2023-07-29T11:22:54;99114.19;;;31.24;45.58
77192;BME280;66172;48.526;8.078;2023-07-29T11:25:22;99115.44;;;30.64;47.76
77192;BME280;66172;48.526;8.078;2023-07-29T11:27:49;99116.16;;;31.88;43.04
77192;BME280;66172;48.526;8.078;2023-07-29T11:30:16;99118.69;;;32.06;44.06
77192;BME280;66172;48.526;8.078;2023-07-29T11:32:44;99115.91;;;31.07;46.05
77192;BME280;66172;48.526;8.078;2023-07-29T11:35:12;99110.88;;;31.26;44.82
77192;BME280;66172;48.526;8.078;2023-07-29T11:37:43;99119.91;;;30.86;45.66
77192;BME280;66172;48.526;8.078;2023-07-29T11:40:12;99111.97;;;30.99;43.92
77192;BME280;66172;48.526;8.078;2023-07-29T11:42:39;99126.38;;;30.77;42.47
77192;BME280;66172;48.526;8.078;2023-07-29T11:45:05;99117.06;;;31.30;40.67
77192;BME280;66172;48.526;8.078;2023-07-29T11:47:35;99109.69;;;30.59;39.39
77192;BME280;66172;48.526;8.078;2023-07-29T11:50:03;99107.66;;;30.21;40.87
77192;BME280;66172;48.526;8.078;2023-07-29T11:52:34;99099.50;;;29.28;40.29
77192;BME280;66172;48.526;8.078;2023-07-29T11:55:01;99091.41;;;29.87;41.05
77192;BME280;66172;48.526;8.078;2023-07-29T11:57:29;99092.44;;;30.51;40.46
77192;BME280;66172;48.526;8.078;2023-07-29T11:59:55;99098.88;;;30.66;38.97
77192;BME280;66172;48.526;8.078;2023-07-29T12:02:23;99104.84;;;30.45;39.12
77192;BME280;66172;48.526;8.078;2023-07-29T12:04:49;99107.00;;;30.50;39.19
77192;BME280;66172;48.526;8.078;2023-07-29T12:07:16;99105.34;;;30.87;40.20
77192;BME280;66172;48.526;8.078;2023-07-29T12:09:43;99105.53;;;31.28;38.38
77192;BME280;66172;48.526;8.078;2023-07-29T12:12:09;99100.94;;;32.00;36.15
77192;BME280;66172;48.526;8.078;2023-07-29T12:14:35;99101.56;;;31.34;38.00
77192;BME280;66172;48.526;8.078;2023-07-29T12:17:02;99097.56;;;31.76;36.35
77192;BME280;66172;48.526;8.078;2023-07-29T12:19:32;99094.53;;;31.79;37.90
77192;BME280;66172;48.526;8.078;2023-07-29T12:22:03;99100.72;;;30.99;37.79
77192;BME280;66172;48.526;8.078;2023-07-29T12:24:33;99101.78;;;31.65;37.74
77192;BME280;66172;48.526;8.078;2023-07-29T12:27:01;99097.66;;;31.32;36.68
77192;BME280;66172;48.526;8.078;2023-07-29T12:29:27;99093.34;;;31.16;39.67
77192;BME280;66172;48.526;8.078;2023-07-29T12:31:58;99104.75;;;31.97;36.19
77192;BME280;66172;48.526;8.078;2023-07-29T12:34:26;99098.06;;;31.94;38.28
77192;BME280;66172;48.526;8.078;2023-07-29T12:36:53;99099.53;;;31.20;37.87
77192;BME280;66172;48.526;8.078;2023-07-29T12:41:51;99094.41;;;30.60;39.98
77192;BME280;66172;48.526;8.078;2023-07-29T12:44:18;99086.88;;;30.28;39.54
77192;BME280;66172;48.526;8.078;2023-07-29T12:46:44;99082.88;;;30.19;39.78
77192;BME280;66172;48.526;8.078;2023-07-29T12:49:10;99094.19;;;30.10;38.72
77192;BME280;66172;48.526;8.078;2023-07-29T12:51:36;99081.31;;;30.04;39.59
77192;BME280;66172;48.526;8.078;2023-07-29T12:54:03;99086.97;;;30.33;37.81
77192;BME280;66172;48.526;8.078;2023-07-29T12:56:30;99078.09;;;29.96;39.98
77192;BME280;66172;48.526;8.078;2023-07-29T12:58:57;99081.44;;;29.86;40.08
77192;BME280;66172;48.526;8.078;2023-07-29T13:01:24;99076.78;;;30.06;39.98
77192;BME280;66172;48.526;8.078;2023-07-29T13:03:50;99075.63;;;30.13;37.76
77192;BME280;66172;48.526;8.078;2023-07-29T13:06:16;99074.22;;;30.32;38.35
77192;BME280;66172;48.526;8.078;2023-07-29T13:08:45;99068.09;;;30.34;37.88
77192;BME280;66172;48.526;8.078;2023-07-29T13:11:11;99065.06;;;29.60;38.81
77192;BME280;66172;48.526;8.078;2023-07-29T13:13:37;99068.69;;;29.28;40.21
77192;BME280;66172;48.526;8.078;2023-07-29T13:16:03;99076.47;;;29.57;38.67
77192;BME280;66172;48.526;8.078;2023-07-29T13:18:29;99073.91;;;29.44;40.01
77192;BME280;66172;48.526;8.078;2023-07-29T13:20:55;99073.31;;;29.88;39.45